sensor_id;sensor_type;location;lat;lon;timestamp;temperature;humidity
71672;DHT22;62112;45.638;11.714;2022-11-20T00:01:19;20.20;88.90
71672;DHT22;62112;45.638;11.714;2022-11-20T00:03:45;20.20;88.90
71672;DHT22;62112;45.638;11.714;2022-11-20T00:06:14;20.20;88.90
71672;DHT22;62112;45.638;11.714;2022-11-20T00:08:40;20.20;89.00
71672;DHT22;62112;45.638;11.714;2022-11-20T00:11:11;20.20;88.90
71672;DHT22;62112;45.638;11.714;2022-11-20T00:13:37;20.10;88.80
71672;DHT22;62112;45.638;11.714;2022-11-20T00:16:05;20.20;88.80
71672;DHT22;62112;45.638;11.714;2022-11-20T00:18:35;20.10;88.90
71672;DHT22;62112;45.638;11.714;2022-11-20T00:21:03;20.10;88.80
71672;DHT22;62112;45.638;11.714;2022-11-20T00:23:29;20.10;88.80
71672;DHT22;62112;45.638;11.714;2022-11-20T00:25:55;20.20;88.90
71672;DHT22;62112;45.638;11.714;2022-11-20T00:28:21;20.20;88.90
71672;DHT22;62112;45.638;11.714;2022-11-20T00:30:47;20.20;88.80
71672;DHT22;62112;45.638;11.714;2022-11-20T00:33:13;20.20;88.80
71672;DHT22;62112;45.638;11.714;2022-11-20T00:35:39;20.10;88.80
71672;DHT22;62112;45.638;11.714;2022-11-20T00:38:04;20.20;88.70
71672;DHT22;62112;45.638;11.714;2022-11-20T00:40:30;20.10;88.90
71672;DHT22;62112;45.638;11.714;2022-11-20T00:42:56;20.20;89.00
71672;DHT22;62112;45.638;11.714;2022-11-20T00:45:22;20.10;88.90
71672;DHT22;62112;45.638;11.714;2022-11-20T00:47:48;20.20;89.00
71672;DHT22;62112;45.638;11.714;2022-11-20T00:50:13;20.10;88.70
71672;DHT22;62112;45.638;11.714;2022-11-20T00:52:39;20.10;88.90
71672;DHT22;62112;45.638;11.714;2022-11-20T00:55:05;20.10;88.80
71672;DHT22;62112;45.638;11.714;2022-11-20T00:57:31;20.10;89.00
71672;DHT22;62112;45.638;11.714;2022-11-20T00:59:57;20.10;88.90
71672;DHT22;62112;45.638;11.714;2022-11-20T01:02:23;20.10;88.80
71672;DHT22;62112;45.638;11.714;2022-11-20T01:04:49;20.10;88.80
71672;DHT22;62112;45.638;11.714;2022-11-20T01:07:14;20.10;88.90
71672;DHT22;62112;45.638;11.714;2022-11-20T01:09:40;20.10;88.70
71672;DHT22;62112;45.638;11.714;2022-11-20T01:12:06;20.10;88.80
71672;DHT22;62112;45.638;11.714;2022-11-20T01:14:32;20.10;88.90
71672;DHT22;62112;45.638;11.714;2022-11-20T01:16:58;20.10;88.80
71672;DHT22;62112;45.638;11.714;2022-11-20T01:19:24;20.00;88.80
71672;DHT22;62112;45.638;11.714;2022-11-20T01:21:52;20.10;88.80
71672;DHT22;62112;45.638;11.714;2022-11-20T01:24:20;20.10;88.70
71672;DHT22;62112;45.638;11.714;2022-11-20T01:26:47;20.10;88.70
71672;DHT22;62112;45.638;11.714;2022-11-20T01:29:16;20.10;88.70
71672;DHT22;62112;45.638;11.714;2022-11-20T01:31:43;20.00;88.80
71672;DHT22;62112;45.638;11.714;2022-11-20T01:34:16;20.00;88.80
71672;DHT22;62112;45.638;11.714;2022-11-20T01:36:43;20.00;88.70
71672;DHT22;62112;45.638;11.714;2022-11-20T01:39:14;20.10;88.70
71672;DHT22;62112;45.638;11.714;2022-11-20T01:41:41;20.00;88.80
71672;DHT22;62112;45.638;11.714;2022-11-20T01:44:50;20.10;88.80
71672;DHT22;62112;45.638;11.714;2022-11-20T01:50:00;20.10;88.70
71672;DHT22;62112;45.638;11.714;2022-11-20T01:52:32;20.00;88.80
71672;DHT22;62112;45.638;11.714;2022-11-20T01:55:17;20.10;88.70
71672;DHT22;62112;45.638;11.714;2022-11-20T01:57:45;20.10;88.80
71672;DHT22;62112;45.638;11.714;2022-11-20T02:00:14;20.00;88.70
71672;DHT22;62112;45.638;11.714;2022-11-20T02:02:49;20.00;88.80
71672;DHT22;62112;45.638;11.714;2022-11-20T02:07:57;20.10;88.70
71672;DHT22;62112;45.638;11.714;2022-11-20T02:10:24;20.10;88.80
71672;DHT22;62112;45.638;11.714;2022-11-20T02:12:51;20.00;88.80
71672;DHT22;62112;45.638;11.714;2022-11-20T02:15:36;20.00;88.80
71672;DHT22;62112;45.638;11.714;2022-11-20T02:18:01;20.00;88.70
71672;DHT22;62112;45.638;11.714;2022-11-20T02:20:28;20.10;88.60
71672;DHT22;62112;45.638;11.714;2022-11-20T02:23:12;20.00;88.80
71672;DHT22;62112;45.638;11.714;2022-11-20T02:25:42;20.00;88.70
71672;DHT22;62112;45.638;11.714;2022-11-20T02:28:09;20.00;88.70
71672;DHT22;62112;45.638;11.714;2022-11-20T02:30:35;20.00;88.60
71672;DHT22;62112;45.638;11.714;2022-11-20T02:33:01;20.00;88.70
71672;DHT22;62112;45.638;11.714;2022-11-20T02:37:54;20.00;88.70
71672;DHT22;62112;45.638;11.714;2022-11-20T02:40:21;20.00;88.60
71672;DHT22;62112;45.638;11.714;2022-11-20T02:42:51;19.90;88.50
71672;DHT22;62112;45.638;11.714;2022-11-20T02:45:17;19.90;88.70
71672;DHT22;62112;45.638;11.714;2022-11-20T02:47:43;19.90;88.60
71672;DHT22;62112;45.638;11.714;2022-11-20T02:50:09;20.00;88.80
71672;DHT22;62112;45.638;11.714;2022-11-20T02:52:35;20.00;88.50
71672;DHT22;62112;45.638;11.714;2022-11-20T02:55:01;20.00;88.70
71672;DHT22;62112;45.638;11.714;2022-11-20T02:57:26;20.00;88.60
71672;DHT22;62112;45.638;11.714;2022-11-20T02:59:52;19.90;88.40
71672;DHT22;62112;45.638;11.714;2022-11-20T03:02:18;20.00;88.60
71672;DHT22;62112;45.638;11.714;2022-11-20T03:04:44;20.00;88.60
71672;DHT22;62112;45.638;11.714;2022-11-20T03:07:09;20.00;88.60
71672;DHT22;62112;45.638;11.714;2022-11-20T03:09:35;19.90;88.50
71672;DHT22;62112;45.638;11.714;2022-11-20T03:12:01;20.00;88.50
71672;DHT22;62112;45.638;11.714;2022-11-20T03:14:27;20.00;88.50
71672;DHT22;62112;45.638;11.714;2022-11-20T03:16:53;19.90;88.50
71672;DHT22;62112;45.638;11.714;2022-11-20T03:19:18;20.00;88.50
71672;DHT22;62112;45.638;11.714;2022-11-20T03:21:44;19.90;88.60
71672;DHT22;62112;45.638;11.714;2022-11-20T03:24:10;20.00;88.50
71672;DHT22;62112;45.638;11.714;2022-11-20T03:26:36;19.90;88.50
71672;DHT22;62112;45.638;11.714;2022-11-20T03:29:03;19.80;88.50
71672;DHT22;62112;45.638;11.714;2022-11-20T03:31:34;19.90;88.40
71672;DHT22;62112;45.638;11.714;2022-11-20T03:34:00;19.90;88.50
71672;DHT22;62112;45.638;11.714;2022-11-20T03:36:27;19.90;88.50
71672;DHT22;62112;45.638;11.714;2022-11-20T03:38:54;19.90;88.50
71672;DHT22;62112;45.638;11.714;2022-11-20T03:41:25;19.90;88.60
71672;DHT22;62112;45.638;11.714;2022-11-20T03:43:58;20.00;88.40
71672;DHT22;62112;45.638;11.714;2022-11-20T03:46:25;19.90;88.50
71672;DHT22;62112;45.638;11.714;2022-11-20T03:48:51;19.90;88.40
71672;DHT22;62112;45.638;11.714;2022-11-20T03:51:27;20.00;88.40
71672;DHT22;62112;45.638;11.714;2022-11-20T03:53:55;19.90;88.40
71672;DHT22;62112;45.638;11.714;2022-11-20T03:56:24;19.80;88.40
71672;DHT22;62112;45.638;11.714;2022-11-20T03:58:50;19.90;88.40
71672;DHT22;62112;45.638;11.714;2022-11-20T04:01:18;19.90;88.30
71672;DHT22;62112;45.638;11.714;2022-11-20T04:03:45;19.90;88.30
71672;DHT22;62112;45.638;11.714;2022-11-20T04:06:17;19.90;88.60
71672;DHT22;62112;45.638;11.714;2022-11-20T04:08:43;19.90;88.40
71672;DHT22;62112;45.638;11.714;2022-11-20T04:11:19;19.90;88.50
71672;DHT22;62112;45.638;11.714;2022-11-20T04:13:48;19.90;88.40
71672;DHT22;62112;45.638;11.714;2022-11-20T04:16:16;19.80;88.20
71672;DHT22;62112;45.638;11.714;2022-11-20T04:18:42;19.90;88.30
71672;DHT22;62112;45.638;11.714;2022-11-20T04:21:09;19.80;88.50
71672;DHT22;62112;45.638;11.714;2022-11-20T04:23:34;19.80;88.20
71672;DHT22;62112;45.638;11.714;2022-11-20T04:26:11;19.80;88.20
71672;DHT22;62112;45.638;11.714;2022-11-20T04:28:38;19.90;88.40
71672;DHT22;62112;45.638;11.714;2022-11-20T04:31:09;19.90;88.30
71672;DHT22;62112;45.638;11.714;2022-11-20T04:33:37;19.90;88.40
71672;DHT22;62112;45.638;11.714;2022-11-20T04:36:05;19.80;88.40
71672;DHT22;62112;45.638;11.714;2022-11-20T04:38:31;19.80;88.40
71672;DHT22;62112;45.638;11.714;2022-11-20T04:41:01;19.90;88.30
71672;DHT22;62112;45.638;11.714;2022-11-20T04:43:28;19.80;88.40
71672;DHT22;62112;45.638;11.714;2022-11-20T04:45:54;19.80;88.40
71672;DHT22;62112;45.638;11.714;2022-11-20T04:48:20;19.80;88.20
71672;DHT22;62112;45.638;11.714;2022-11-20T04:50:46;19.80;88.30
71672;DHT22;62112;45.638;11.714;2022-11-20T04:53:12;19.80;88.40
71672;DHT22;62112;45.638;11.714;2022-11-20T04:55:38;19.80;88.20
71672;DHT22;62112;45.638;11.714;2022-11-20T04:58:04;19.80;88.30
71672;DHT22;62112;45.638;11.714;2022-11-20T05:00:30;19.80;88.40
71672;DHT22;62112;45.638;11.714;2022-11-20T05:02:56;19.80;88.30
71672;DHT22;62112;45.638;11.714;2022-11-20T05:05:22;19.80;88.40
71672;DHT22;62112;45.638;11.714;2022-11-20T05:07:48;19.80;88.30
71672;DHT22;62112;45.638;11.714;2022-11-20T05:10:14;19.90;88.30
71672;DHT22;62112;45.638;11.714;2022-11-20T05:12:40;19.80;88.30
71672;DHT22;62112;45.638;11.714;2022-11-20T05:15:06;19.80;88.20
71672;DHT22;62112;45.638;11.714;2022-11-20T05:17:32;19.80;88.20
71672;DHT22;62112;45.638;11.714;2022-11-20T05:19:58;19.80;88.10
71672;DHT22;62112;45.638;11.714;2022-11-20T05:22:24;19.70;88.20
71672;DHT22;62112;45.638;11.714;2022-11-20T05:24:50;19.80;88.20
71672;DHT22;62112;45.638;11.714;2022-11-20T05:27:15;19.70;88.10
71672;DHT22;62112;45.638;11.714;2022-11-20T05:29:41;19.80;88.20
71672;DHT22;62112;45.638;11.714;2022-11-20T05:32:07;19.80;88.20
71672;DHT22;62112;45.638;11.714;2022-11-20T05:34:35;19.70;88.30
71672;DHT22;62112;45.638;11.714;2022-11-20T05:37:02;19.80;88.30
71672;DHT22;62112;45.638;11.714;2022-11-20T05:39:28;19.80;88.10
71672;DHT22;62112;45.638;11.714;2022-11-20T05:41:54;19.80;88.20
71672;DHT22;62112;45.638;11.714;2022-11-20T05:44:39;19.80;88.00
71672;DHT22;62112;45.638;11.714;2022-11-20T05:47:05;19.70;88.20
71672;DHT22;62112;45.638;11.714;2022-11-20T05:49:31;19.70;88.20
71672;DHT22;62112;45.638;11.714;2022-11-20T05:51:57;19.70;88.10
71672;DHT22;62112;45.638;11.714;2022-11-20T05:54:22;19.70;88.00
71672;DHT22;62112;45.638;11.714;2022-11-20T05:56:48;19.70;88.10
71672;DHT22;62112;45.638;11.714;2022-11-20T05:59:15;19.70;88.00
71672;DHT22;62112;45.638;11.714;2022-11-20T06:01:40;19.70;88.00
71672;DHT22;62112;45.638;11.714;2022-11-20T06:04:07;19.70;88.10
71672;DHT22;62112;45.638;11.714;2022-11-20T06:06:33;19.70;88.00
71672;DHT22;62112;45.638;11.714;2022-11-20T06:08:58;19.60;88.20
71672;DHT22;62112;45.638;11.714;2022-11-20T06:11:25;19.70;88.00
71672;DHT22;62112;45.638;11.714;2022-11-20T06:13:51;19.70;88.00
71672;DHT22;62112;45.638;11.714;2022-11-20T06:16:19;19.70;88.10
71672;DHT22;62112;45.638;11.714;2022-11-20T06:18:46;19.70;87.70
71672;DHT22;62112;45.638;11.714;2022-11-20T06:21:17;19.70;88.00
71672;DHT22;62112;45.638;11.714;2022-11-20T06:23:45;19.70;87.90
71672;DHT22;62112;45.638;11.714;2022-11-20T06:26:17;19.70;87.90
71672;DHT22;62112;45.638;11.714;2022-11-20T06:28:44;19.60;87.80
71672;DHT22;62112;45.638;11.714;2022-11-20T06:31:14;19.70;88.00
71672;DHT22;62112;45.638;11.714;2022-11-20T06:33:46;19.70;88.10
71672;DHT22;62112;45.638;11.714;2022-11-20T06:36:15;19.60;87.90
71672;DHT22;62112;45.638;11.714;2022-11-20T06:38:41;19.60;87.80
71672;DHT22;62112;45.638;11.714;2022-11-20T06:41:15;19.60;87.90
71672;DHT22;62112;45.638;11.714;2022-11-20T06:43:42;19.70;87.90
71672;DHT22;62112;45.638;11.714;2022-11-20T06:46:12;19.70;87.90
71672;DHT22;62112;45.638;11.714;2022-11-20T06:48:41;19.60;87.80
71672;DHT22;62112;45.638;11.714;2022-11-20T06:51:08;19.60;87.90
71672;DHT22;62112;45.638;11.714;2022-11-20T06:53:35;19.60;88.00
71672;DHT22;62112;45.638;11.714;2022-11-20T06:56:00;19.60;88.00
71672;DHT22;62112;45.638;11.714;2022-11-20T06:58:28;19.60;88.00
71672;DHT22;62112;45.638;11.714;2022-11-20T07:01:11;19.70;87.90
71672;DHT22;62112;45.638;11.714;2022-11-20T07:03:40;19.60;87.80
71672;DHT22;62112;45.638;11.714;2022-11-20T07:06:10;19.60;87.90
71672;DHT22;62112;45.638;11.714;2022-11-20T07:08:36;19.70;87.90
71672;DHT22;62112;45.638;11.714;2022-11-20T07:11:07;19.70;88.00
71672;DHT22;62112;45.638;11.714;2022-11-20T07:13:34;19.70;87.80
71672;DHT22;62112;45.638;11.714;2022-11-20T07:16:05;19.70;87.90
71672;DHT22;62112;45.638;11.714;2022-11-20T07:18:32;19.70;87.80
71672;DHT22;62112;45.638;11.714;2022-11-20T07:21:07;19.70;87.70
71672;DHT22;62112;45.638;11.714;2022-11-20T07:23:33;19.70;87.70
71672;DHT22;62112;45.638;11.714;2022-11-20T07:26:08;19.70;87.80
71672;DHT22;62112;45.638;11.714;2022-11-20T07:28:38;19.80;87.80
71672;DHT22;62112;45.638;11.714;2022-11-20T07:31:06;19.70;87.90
71672;DHT22;62112;45.638;11.714;2022-11-20T07:33:33;19.70;87.70
71672;DHT22;62112;45.638;11.714;2022-11-20T07:36:00;19.80;87.60
71672;DHT22;62112;45.638;11.714;2022-11-20T07:38:27;20.00;87.60
71672;DHT22;62112;45.638;11.714;2022-11-20T07:40:55;20.10;87.60
71672;DHT22;62112;45.638;11.714;2022-11-20T07:43:21;20.20;87.50
71672;DHT22;62112;45.638;11.714;2022-11-20T07:45:49;20.30;87.30
71672;DHT22;62112;45.638;11.714;2022-11-20T07:48:15;20.40;87.10
71672;DHT22;62112;45.638;11.714;2022-11-20T07:50:42;20.50;87.10
71672;DHT22;62112;45.638;11.714;2022-11-20T07:53:08;20.50;86.90
71672;DHT22;62112;45.638;11.714;2022-11-20T07:55:33;20.60;86.80
71672;DHT22;62112;45.638;11.714;2022-11-20T07:57:59;20.60;86.70
71672;DHT22;62112;45.638;11.714;2022-11-20T08:00:26;20.90;86.30
71672;DHT22;62112;45.638;11.714;2022-11-20T08:02:52;21.00;85.10
71672;DHT22;62112;45.638;11.714;2022-11-20T08:05:18;21.10;85.10
71672;DHT22;62112;45.638;11.714;2022-11-20T08:07:44;21.20;85.00
71672;DHT22;62112;45.638;11.714;2022-11-20T08:10:13;21.30;84.80
71672;DHT22;62112;45.638;11.714;2022-11-20T08:12:46;21.50;84.70
71672;DHT22;62112;45.638;11.714;2022-11-20T08:15:31;21.60;84.20
71672;DHT22;62112;45.638;11.714;2022-11-20T08:18:06;21.70;84.50
71672;DHT22;62112;45.638;11.714;2022-11-20T08:20:33;21.80;84.00
71672;DHT22;62112;45.638;11.714;2022-11-20T08:23:01;21.90;84.20
71672;DHT22;62112;45.638;11.714;2022-11-20T08:25:28;22.00;84.20
71672;DHT22;62112;45.638;11.714;2022-11-20T08:27:57;22.10;84.00
71672;DHT22;62112;45.638;11.714;2022-11-20T08:30:23;22.10;83.80
71672;DHT22;62112;45.638;11.714;2022-11-20T08:32:49;22.20;83.90
71672;DHT22;62112;45.638;11.714;2022-11-20T08:35:15;22.30;83.70
71672;DHT22;62112;45.638;11.714;2022-11-20T08:37:41;22.40;83.80
71672;DHT22;62112;45.638;11.714;2022-11-20T08:40:10;22.50;83.70
71672;DHT22;62112;45.638;11.714;2022-11-20T08:42:50;22.50;83.50
71672;DHT22;62112;45.638;11.714;2022-11-20T08:45:18;22.60;83.00
71672;DHT22;62112;45.638;11.714;2022-11-20T08:47:47;22.70;83.30
71672;DHT22;62112;45.638;11.714;2022-11-20T08:50:14;22.70;83.30
71672;DHT22;62112;45.638;11.714;2022-11-20T08:52:40;22.80;83.20
71672;DHT22;62112;45.638;11.714;2022-11-20T08:55:07;22.80;82.90
71672;DHT22;62112;45.638;11.714;2022-11-20T08:57:37;22.90;82.90
71672;DHT22;62112;45.638;11.714;2022-11-20T09:00:05;22.90;82.90
71672;DHT22;62112;45.638;11.714;2022-11-20T09:02:32;22.90;82.90
71672;DHT22;62112;45.638;11.714;2022-11-20T09:04:58;22.90;83.00
71672;DHT22;62112;45.638;11.714;2022-11-20T09:11:04;21.90;84.00
71672;DHT22;62112;45.638;11.714;2022-11-20T09:13:31;22.90;82.50
71672;DHT22;62112;45.638;11.714;2022-11-20T09:16:00;23.00;82.40
71672;DHT22;62112;45.638;11.714;2022-11-20T09:18:27;23.10;82.20
71672;DHT22;62112;45.638;11.714;2022-11-20T09:21:01;23.10;82.10
71672;DHT22;62112;45.638;11.714;2022-11-20T09:23:30;23.10;82.10
71672;DHT22;62112;45.638;11.714;2022-11-20T09:25:56;23.10;81.90
71672;DHT22;62112;45.638;11.714;2022-11-20T09:28:25;23.10;82.00
71672;DHT22;62112;45.638;11.714;2022-11-20T09:30:51;23.10;81.80
71672;DHT22;62112;45.638;11.714;2022-11-20T09:33:17;23.30;82.20
71672;DHT22;62112;45.638;11.714;2022-11-20T09:35:44;23.30;82.10
71672;DHT22;62112;45.638;11.714;2022-11-20T09:38:10;23.20;82.40
71672;DHT22;62112;45.638;11.714;2022-11-20T09:40:40;23.20;82.50
71672;DHT22;62112;45.638;11.714;2022-11-20T09:43:49;23.20;82.50
71672;DHT22;62112;45.638;11.714;2022-11-20T09:46:49;23.30;82.60
71672;DHT22;62112;45.638;11.714;2022-11-20T09:54:37;23.30;82.50
71672;DHT22;62112;45.638;11.714;2022-11-20T09:57:23;23.30;82.60
71672;DHT22;62112;45.638;11.714;2022-11-20T09:59:58;23.30;82.50
71672;DHT22;62112;45.638;11.714;2022-11-20T10:02:48;23.30;82.60
71672;DHT22;62112;45.638;11.714;2022-11-20T10:05:36;23.20;82.40
71672;DHT22;62112;45.638;11.714;2022-11-20T10:08:25;23.30;82.40
71672;DHT22;62112;45.638;11.714;2022-11-20T10:11:06;23.30;82.40
71672;DHT22;62112;45.638;11.714;2022-11-20T10:29:51;23.30;82.20
71672;DHT22;62112;45.638;11.714;2022-11-20T10:32:31;23.20;82.30
71672;DHT22;62112;45.638;11.714;2022-11-20T10:37:31;23.10;82.20
71672;DHT22;62112;45.638;11.714;2022-11-20T10:42:34;23.20;82.40
71672;DHT22;62112;45.638;11.714;2022-11-20T10:45:16;23.10;82.50
71672;DHT22;62112;45.638;11.714;2022-11-20T10:47:44;23.10;82.20
71672;DHT22;62112;45.638;11.714;2022-11-20T10:50:20;23.20;82.40
71672;DHT22;62112;45.638;11.714;2022-11-20T10:52:55;23.20;82.30
71672;DHT22;62112;45.638;11.714;2022-11-20T11:00:52;23.10;82.30
71672;DHT22;62112;45.638;11.714;2022-11-20T11:03:25;23.10;82.40
71672;DHT22;62112;45.638;11.714;2022-11-20T11:06:07;23.10;82.20
71672;DHT22;62112;45.638;11.714;2022-11-20T11:08:41;23.10;82.30
71672;DHT22;62112;45.638;11.714;2022-11-20T11:11:24;23.10;82.30
71672;DHT22;62112;45.638;11.714;2022-11-20T11:13:50;23.00;82.40
71672;DHT22;62112;45.638;11.714;2022-11-20T11:16:29;23.00;82.50
71672;DHT22;62112;45.638;11.714;2022-11-20T11:19:12;23.10;82.40
71672;DHT22;62112;45.638;11.714;2022-11-20T11:21:38;23.00;82.30
71672;DHT22;62112;45.638;11.714;2022-11-20T11:24:25;23.10;82.50
71672;DHT22;62112;45.638;11.714;2022-11-20T11:27:02;23.10;82.30
71672;DHT22;62112;45.638;11.714;2022-11-20T11:29:32;23.10;82.40
71672;DHT22;62112;45.638;11.714;2022-11-20T11:32:06;23.10;82.50
71672;DHT22;62112;45.638;11.714;2022-11-20T11:34:33;23.10;82.50
71672;DHT22;62112;45.638;11.714;2022-11-20T11:37:00;23.00;82.50
71672;DHT22;62112;45.638;11.714;2022-11-20T11:39:29;23.10;82.50
71672;DHT22;62112;45.638;11.714;2022-11-20T11:41:57;23.00;82.40
71672;DHT22;62112;45.638;11.714;2022-11-20T11:44:30;23.00;82.40
71672;DHT22;62112;45.638;11.714;2022-11-20T11:50:18;23.00;82.40
71672;DHT22;62112;45.638;11.714;2022-11-20T11:53:12;22.90;82.60
71672;DHT22;62112;45.638;11.714;2022-11-20T11:56:03;22.90;82.60
71672;DHT22;62112;45.638;11.714;2022-11-20T11:58:46;22.80;82.70
71672;DHT22;62112;45.638;11.714;2022-11-20T12:01:35;22.80;82.40
71672;DHT22;62112;45.638;11.714;2022-11-20T12:09:43;22.80;82.30
71672;DHT22;62112;45.638;11.714;2022-11-20T12:12:20;22.80;82.30
71672;DHT22;62112;45.638;11.714;2022-11-20T12:14:48;22.70;82.40
71672;DHT22;62112;45.638;11.714;2022-11-20T12:17:16;22.70;82.50
71672;DHT22;62112;45.638;11.714;2022-11-20T12:19:43;22.70;82.60
71672;DHT22;62112;45.638;11.714;2022-11-20T12:25:04;22.70;82.40
71672;DHT22;62112;45.638;11.714;2022-11-20T12:30:19;22.70;82.40
71672;DHT22;62112;45.638;11.714;2022-11-20T12:32:52;22.60;82.50
71672;DHT22;62112;45.638;11.714;2022-11-20T12:35:44;22.60;82.50
71672;DHT22;62112;45.638;11.714;2022-11-20T12:38:40;22.50;82.60
71672;DHT22;62112;45.638;11.714;2022-11-20T12:44:52;22.50;82.60
71672;DHT22;62112;45.638;11.714;2022-11-20T12:50:53;22.50;82.80
71672;DHT22;62112;45.638;11.714;2022-11-20T13:05:08;22.40;82.70
71672;DHT22;62112;45.638;11.714;2022-11-20T13:07:44;22.40;82.70
71672;DHT22;62112;45.638;11.714;2022-11-20T13:10:21;22.40;82.80
71672;DHT22;62112;45.638;11.714;2022-11-20T13:13:07;22.20;82.80
71672;DHT22;62112;45.638;11.714;2022-11-20T13:18:41;22.20;83.00
71672;DHT22;62112;45.638;11.714;2022-11-20T13:21:21;22.20;83.10
71672;DHT22;62112;45.638;11.714;2022-11-20T13:23:49;22.20;83.20
71672;DHT22;62112;45.638;11.714;2022-11-20T13:26:20;22.20;83.20
71672;DHT22;62112;45.638;11.714;2022-11-20T13:28:48;22.20;83.30
71672;DHT22;62112;45.638;11.714;2022-11-20T13:31:35;22.10;83.10
71672;DHT22;62112;45.638;11.714;2022-11-20T13:34:04;22.10;83.20
71672;DHT22;62112;45.638;11.714;2022-11-20T13:36:31;22.00;83.30
71672;DHT22;62112;45.638;11.714;2022-11-20T13:38:58;22.00;83.40
71672;DHT22;62112;45.638;11.714;2022-11-20T13:44:35;22.00;83.50
71672;DHT22;62112;45.638;11.714;2022-11-20T13:47:03;22.10;83.60
71672;DHT22;62112;45.638;11.714;2022-11-20T13:49:33;22.00;83.70
71672;DHT22;62112;45.638;11.714;2022-11-20T13:54:51;21.90;83.60
71672;DHT22;62112;45.638;11.714;2022-11-20T13:57:52;22.00;83.80
71672;DHT22;62112;45.638;11.714;2022-11-20T14:00:22;21.90;83.60
71672;DHT22;62112;45.638;11.714;2022-11-20T14:03:08;21.90;83.80
71672;DHT22;62112;45.638;11.714;2022-11-20T14:05:38;21.90;83.80
71672;DHT22;62112;45.638;11.714;2022-11-20T14:08:09;21.80;83.80
71672;DHT22;62112;45.638;11.714;2022-11-20T14:10:38;21.80;83.80
71672;DHT22;62112;45.638;11.714;2022-11-20T14:13:31;21.80;83.80
71672;DHT22;62112;45.638;11.714;2022-11-20T14:15:57;21.70;84.00
71672;DHT22;62112;45.638;11.714;2022-11-20T14:18:26;21.70;83.80
71672;DHT22;62112;45.638;11.714;2022-11-20T14:20:52;21.70;84.10
71672;DHT22;62112;45.638;11.714;2022-11-20T14:23:28;21.80;84.00
71672;DHT22;62112;45.638;11.714;2022-11-20T14:25:54;21.60;84.00
71672;DHT22;62112;45.638;11.714;2022-11-20T14:28:29;21.70;84.00
71672;DHT22;62112;45.638;11.714;2022-11-20T14:30:56;21.60;84.20
71672;DHT22;62112;45.638;11.714;2022-11-20T14:33:24;21.60;84.10
71672;DHT22;62112;45.638;11.714;2022-11-20T14:35:55;21.70;84.20
71672;DHT22;62112;45.638;11.714;2022-11-20T14:38:26;21.70;84.10
71672;DHT22;62112;45.638;11.714;2022-11-20T14:41:06;21.70;84.30
71672;DHT22;62112;45.638;11.714;2022-11-20T14:43:32;21.60;84.30
71672;DHT22;62112;45.638;11.714;2022-11-20T14:46:08;21.60;84.20
71672;DHT22;62112;45.638;11.714;2022-11-20T14:48:49;21.60;84.10
71672;DHT22;62112;45.638;11.714;2022-11-20T14:51:33;21.60;84.40
71672;DHT22;62112;45.638;11.714;2022-11-20T14:54:13;21.60;84.50
71672;DHT22;62112;45.638;11.714;2022-11-20T14:56:40;21.60;84.40
71672;DHT22;62112;45.638;11.714;2022-11-20T14:59:06;21.50;84.50
71672;DHT22;62112;45.638;11.714;2022-11-20T15:01:33;21.50;84.50
71672;DHT22;62112;45.638;11.714;2022-11-20T15:06:28;21.50;84.60
71672;DHT22;62112;45.638;11.714;2022-11-20T15:08:55;21.40;84.60
71672;DHT22;62112;45.638;11.714;2022-11-20T15:11:27;21.40;84.60
71672;DHT22;62112;45.638;11.714;2022-11-20T15:13:54;21.50;84.80
71672;DHT22;62112;45.638;11.714;2022-11-20T15:16:22;21.40;84.80
71672;DHT22;62112;45.638;11.714;2022-11-20T15:18:49;21.30;84.80
71672;DHT22;62112;45.638;11.714;2022-11-20T15:21:17;21.40;84.60
71672;DHT22;62112;45.638;11.714;2022-11-20T15:23:44;21.40;84.90
71672;DHT22;62112;45.638;11.714;2022-11-20T15:26:11;21.40;84.80
71672;DHT22;62112;45.638;11.714;2022-11-20T15:28:43;21.40;84.80
71672;DHT22;62112;45.638;11.714;2022-11-20T15:31:14;21.30;84.90
71672;DHT22;62112;45.638;11.714;2022-11-20T15:33:40;21.30;84.90
71672;DHT22;62112;45.638;11.714;2022-11-20T15:36:09;21.30;84.80
71672;DHT22;62112;45.638;11.714;2022-11-20T15:38:35;21.20;85.00
71672;DHT22;62112;45.638;11.714;2022-11-20T15:41:01;21.30;84.90
71672;DHT22;62112;45.638;11.714;2022-11-20T15:43:27;21.20;85.00
71672;DHT22;62112;45.638;11.714;2022-11-20T15:48:34;21.20;85.00
71672;DHT22;62112;45.638;11.714;2022-11-20T15:51:26;21.20;85.10
71672;DHT22;62112;45.638;11.714;2022-11-20T15:53:53;21.10;85.10
71672;DHT22;62112;45.638;11.714;2022-11-20T15:56:19;21.20;85.00
71672;DHT22;62112;45.638;11.714;2022-11-20T15:58:45;21.00;85.10
71672;DHT22;62112;45.638;11.714;2022-11-20T16:01:12;21.10;85.00
71672;DHT22;62112;45.638;11.714;2022-11-20T16:03:38;21.00;85.10
71672;DHT22;62112;45.638;11.714;2022-11-20T16:06:05;21.10;85.10
71672;DHT22;62112;45.638;11.714;2022-11-20T16:08:31;21.00;85.20
71672;DHT22;62112;45.638;11.714;2022-11-20T16:10:56;21.10;85.30
71672;DHT22;62112;45.638;11.714;2022-11-20T16:13:22;21.10;85.20
71672;DHT22;62112;45.638;11.714;2022-11-20T16:16:23;20.90;85.20
71672;DHT22;62112;45.638;11.714;2022-11-20T16:18:50;21.00;85.20
71672;DHT22;62112;45.638;11.714;2022-11-20T16:21:16;21.00;85.20
71672;DHT22;62112;45.638;11.714;2022-11-20T16:23:42;20.90;85.20
71672;DHT22;62112;45.638;11.714;2022-11-20T16:26:12;20.90;85.30
71672;DHT22;62112;45.638;11.714;2022-11-20T16:28:39;20.90;85.30
71672;DHT22;62112;45.638;11.714;2022-11-20T16:31:12;20.90;86.60
71672;DHT22;62112;45.638;11.714;2022-11-20T16:33:38;20.90;85.30
71672;DHT22;62112;45.638;11.714;2022-11-20T16:36:13;20.80;86.60
71672;DHT22;62112;45.638;11.714;2022-11-20T16:38:40;20.80;86.70
71672;DHT22;62112;45.638;11.714;2022-11-20T16:41:11;20.90;86.50
71672;DHT22;62112;45.638;11.714;2022-11-20T16:43:47;20.90;85.30
71672;DHT22;62112;45.638;11.714;2022-11-20T16:46:15;20.80;86.80
71672;DHT22;62112;45.638;11.714;2022-11-20T16:48:41;20.80;86.60
71672;DHT22;62112;45.638;11.714;2022-11-20T16:51:11;20.90;85.40
71672;DHT22;62112;45.638;11.714;2022-11-20T16:53:37;20.80;86.80
71672;DHT22;62112;45.638;11.714;2022-11-20T16:56:14;20.80;86.60
71672;DHT22;62112;45.638;11.714;2022-11-20T16:58:44;20.90;85.50
71672;DHT22;62112;45.638;11.714;2022-11-20T17:01:12;20.80;86.70
71672;DHT22;62112;45.638;11.714;2022-11-20T17:03:40;20.90;85.50